createdAt,value
2023-03-31T00:03:03.298Z,71.18
2023-03-31T00:07:06.274Z,71.08
2023-03-31T00:11:09.570Z,71.76
2023-03-31T00:15:11.829Z,71.02
2023-03-31T00:19:18.410Z,70.38
2023-03-31T00:23:18.857Z,69.91
2023-03-31T00:27:19.787Z,69.75
2023-03-31T00:31:21.053Z,70.21
2023-03-31T00:35:24.301Z,69.98
2023-03-31T00:39:25.604Z,70.08
2023-03-31T00:43:36.325Z,69.95
2023-03-31T00:47:39.261Z,69.64
2023-03-31T00:51:44.230Z,69.14
2023-03-31T00:55:51.598Z,69.31
2023-03-31T00:59:57.171Z,69.80
2023-03-31T01:03:59.888Z,69.51
2023-03-31T01:08:05.932Z,68.65
2023-03-31T01:12:13.653Z,68.58
2023-03-31T01:16:14.505Z,69.08
2023-03-31T01:20:32.027Z,69.46
2023-03-31T01:25:39.092Z,70.21
2023-03-31T01:30:13.294Z,70.40
2023-03-31T01:35:19.842Z,70.61
2023-03-31T01:40:09.881Z,70.17
2023-03-31T01:44:25.471Z,71.32
2023-03-31T01:48:39.735Z,71.81
2023-03-31T01:52:50.710Z,70.90
2023-03-31T01:57:05.838Z,70.04
2023-03-31T02:01:20.086Z,69.92
2023-03-31T02:05:26.187Z,70.83
2023-03-31T02:09:34.374Z,70.67
2023-03-31T02:13:42.176Z,70.38
2023-03-31T02:17:47.520Z,69.94
2023-03-31T02:21:53.052Z,69.32
2023-03-31T02:26:02.543Z,69.53
2023-03-31T02:30:09.723Z,71.53
2023-03-31T02:34:10.467Z,71.28
2023-03-31T02:38:11.972Z,70.91
2023-03-31T02:42:15.553Z,70.52
2023-03-31T02:46:18.692Z,70.11
2023-03-31T02:50:19.627Z,69.74
2023-03-31T02:54:46.647Z,69.45
2023-03-31T02:59:09.214Z,69.64
2023-03-31T03:03:32.183Z,69.54
2023-03-31T03:07:45.965Z,69.43
2023-03-31T03:11:57.680Z,68.86
2023-03-31T03:16:07.087Z,68.92
2023-03-31T03:20:12.843Z,69.44
2023-03-31T03:24:15.903Z,69.01
2023-03-31T03:28:16.236Z,68.90
2023-03-31T03:32:17.268Z,69.22
2023-03-31T03:36:20.728Z,69.07
2023-03-31T03:40:21.678Z,69.08
2023-03-31T03:44:24.899Z,68.68
2023-03-31T03:48:26.993Z,68.77
2023-03-31T03:52:30.048Z,68.74
2023-03-31T03:56:30.665Z,68.88
2023-03-31T04:00:31.119Z,68.30
2023-03-31T04:04:31.543Z,68.39
2023-03-31T04:08:38.340Z,67.78
2023-03-31T04:12:39.269Z,67.83
2023-03-31T04:16:41.033Z,67.52
2023-03-31T04:20:41.475Z,66.98
2023-03-31T04:24:46.188Z,67.25
2023-03-31T04:28:50.974Z,67.72
2023-03-31T04:32:53.598Z,67.67
2023-03-31T04:36:56.426Z,67.65
2023-03-31T04:41:00.017Z,68.21
2023-03-31T04:45:03.047Z,68.25
2023-03-31T04:49:06.473Z,69.04
2023-03-31T04:53:07.893Z,68.62
2023-03-31T04:57:11.638Z,68.42
2023-03-31T05:01:13.879Z,68.41
2023-03-31T05:05:16.185Z,68.87
2023-03-31T05:09:16.600Z,68.46
2023-03-31T05:13:19.606Z,67.79
2023-03-31T05:17:20.776Z,68.60
2023-03-31T05:21:23.676Z,68.51
2023-03-31T05:25:24.469Z,68.60
2023-03-31T05:29:29.999Z,68.44
2023-03-31T05:33:31.194Z,68.16
2023-03-31T05:37:31.875Z,67.83
2023-03-31T05:41:33.129Z,67.60
2023-03-31T05:45:36.008Z,67.69
2023-03-31T05:49:36.734Z,67.59
2023-03-31T05:53:37.642Z,68.13
2023-03-31T05:57:38.092Z,68.10
2023-03-31T06:01:41.787Z,70.32
2023-03-31T06:05:42.877Z,70.74
2023-03-31T06:09:44.571Z,71.70
2023-03-31T06:13:45.937Z,71.11
2023-03-31T06:17:51.485Z,70.68
2023-03-31T06:21:52.895Z,70.21
2023-03-31T06:25:54.444Z,69.95
2023-03-31T06:29:55.127Z,70.69
2023-03-31T06:33:58.958Z,70.49
2023-03-31T06:38:00.194Z,70.17
2023-03-31T06:42:01.357Z,69.63
2023-03-31T06:46:02.301Z,69.22
2023-03-31T06:50:05.489Z,69.23
2023-03-31T06:54:06.513Z,69.61
2023-03-31T06:58:07.903Z,69.97
2023-03-31T07:02:08.395Z,69.51
2023-03-31T07:06:12.236Z,69.68
2023-03-31T07:10:13.357Z,69.49
2023-03-31T07:14:15.164Z,69.04
2023-03-31T07:18:16.015Z,69.34
2023-03-31T07:22:19.657Z,69.52
2023-03-31T07:26:20.181Z,69.30
2023-03-31T07:30:23.364Z,68.71
2023-03-31T07:34:23.775Z,68.87
2023-03-31T07:38:26.939Z,71.88
2023-03-31T07:42:29.105Z,72.37
2023-03-31T07:46:33.537Z,72.67
2023-03-31T07:50:34.397Z,71.97
2023-03-31T07:54:40.462Z,71.84
2023-03-31T07:58:41.316Z,71.23
2023-03-31T08:02:43.422Z,70.70
2023-03-31T08:06:46.487Z,70.79
2023-03-31T08:10:52.065Z,70.02
2023-03-31T08:14:54.420Z,70.62
2023-03-31T08:18:55.205Z,70.47
2023-03-31T08:22:55.773Z,70.75
2023-03-31T08:26:59.437Z,71.23
2023-03-31T08:31:05.530Z,71.92
2023-03-31T08:35:06.774Z,72.78
2023-03-31T08:39:07.822Z,73.38
2023-03-31T08:43:21.100Z,73.58
2023-03-31T08:47:27.317Z,73.55
2023-03-31T08:51:32.443Z,73.49
2023-03-31T08:55:40.291Z,73.76
2023-03-31T08:59:44.765Z,72.88
2023-03-31T09:04:10.264Z,73.47
2023-03-31T09:08:34.039Z,74.41
2023-03-31T09:12:47.301Z,73.54
2023-03-31T09:16:59.710Z,73.54
2023-03-31T09:21:11.465Z,70.26
2023-03-31T09:25:20.183Z,71.42
2023-03-31T09:29:27.485Z,71.74
2023-03-31T09:33:34.719Z,69.39
2023-03-31T09:37:36.399Z,68.24
2023-03-31T09:41:37.179Z,68.21
2023-03-31T09:45:41.545Z,67.75
2023-03-31T09:49:54.156Z,68.10
2023-03-31T09:54:01.724Z,66.83
2023-03-31T09:58:04.831Z,66.79
2023-03-31T10:02:18.324Z,66.49
2023-03-31T10:06:24.096Z,65.78
2023-03-31T10:10:34.285Z,64.31
2023-03-31T10:14:45.469Z,63.68
2023-03-31T10:18:47.636Z,64.45
2023-03-31T10:22:53.801Z,64.89
2023-03-31T10:27:00.474Z,62.61
2023-03-31T10:31:18.162Z,63.09
2023-03-31T10:35:29.560Z,58.74
2023-03-31T10:39:36.041Z,56.45
2023-03-31T10:43:47.120Z,59.38
2023-03-31T10:47:58.317Z,55.73
2023-03-31T10:52:02.811Z,58.25
2023-03-31T10:56:35.296Z,59.74
2023-03-31T11:00:47.424Z,59.41
2023-03-31T11:05:01.857Z,58.11
2023-03-31T11:09:23.891Z,56.89
2023-03-31T11:13:38.323Z,58.02
2023-03-31T11:18:01.949Z,59.58
2023-03-31T11:22:12.918Z,58.78
2023-03-31T11:26:30.496Z,60.67
2023-03-31T11:30:43.235Z,61.94
2023-03-31T11:35:01.259Z,57.10
2023-03-31T11:39:28.061Z,55.33
2023-03-31T11:43:38.460Z,56.91
2023-03-31T11:47:48.501Z,59.34
2023-03-31T11:51:58.762Z,58.84
2023-03-31T11:56:05.614Z,64.32
2023-03-31T12:00:21.153Z,64.80
2023-03-31T12:04:37.548Z,65.58
2023-03-31T12:08:44.916Z,66.87
2023-03-31T12:12:53.525Z,65.06
2023-03-31T12:16:59.611Z,63.87
2023-03-31T12:21:07.716Z,64.67
2023-03-31T12:25:15.298Z,58.51
2023-03-31T12:29:28.713Z,60.03
2023-03-31T12:33:36.901Z,59.18
2023-03-31T12:38:16.516Z,64.12
2023-03-31T12:42:45.405Z,67.95
2023-03-31T12:47:23.998Z,69.07
2023-03-31T12:51:47.066Z,68.00
2023-03-31T12:55:52.600Z,65.69
2023-03-31T13:00:27.097Z,63.92
2023-03-31T13:04:31.089Z,56.27
2023-03-31T13:08:57.824Z,54.94
2023-03-31T13:13:19.900Z,56.11
2023-03-31T13:17:34.421Z,54.57
2023-03-31T13:21:54.773Z,52.43
2023-03-31T13:25:56.433Z,53.10
2023-03-31T13:29:59.404Z,50.44
2023-03-31T13:34:02.487Z,46.60
2023-03-31T13:38:23.464Z,49.29
2023-03-31T13:42:58.654Z,51.61
2023-03-31T13:47:56.734Z,59.35
2023-03-31T13:52:01.534Z,66.19
2023-03-31T13:56:48.235Z,64.81
2023-03-31T14:01:09.861Z,65.41
2023-03-31T14:05:31.766Z,64.77
2023-03-31T14:09:41.442Z,63.52
2023-03-31T14:13:41.874Z,64.72
2023-03-31T14:17:45.213Z,62.90
2023-03-31T14:21:58.417Z,59.99
2023-03-31T14:26:10.392Z,59.63
2023-03-31T14:30:22.869Z,59.80
2023-03-31T14:35:01.305Z,58.73
2023-03-31T14:39:16.241Z,59.47
2023-03-31T14:43:25.622Z,57.24
2023-03-31T14:47:29.401Z,55.76
2023-03-31T14:51:34.252Z,53.87
2023-03-31T14:55:57.271Z,55.95
2023-03-31T14:59:59.190Z,58.39
2023-03-31T15:03:59.820Z,60.40
2023-03-31T15:08:03.053Z,58.27
2023-03-31T15:12:11.743Z,53.54
2023-03-31T15:16:35.747Z,50.93
2023-03-31T15:20:43.041Z,52.96
2023-03-31T15:24:43.658Z,57.94
2023-03-31T15:28:58.091Z,58.68
2023-03-31T15:33:11.731Z,55.48
2023-03-31T15:37:28.160Z,53.28
2023-03-31T15:41:34.250Z,54.07
2023-03-31T15:45:59.709Z,55.93
2023-03-31T15:50:07.824Z,58.10
2023-03-31T15:54:48.139Z,60.81
2023-03-31T15:59:00.181Z,60.80
2023-03-31T16:03:05.849Z,62.94
2023-03-31T16:07:12.608Z,63.20
2023-03-31T16:11:16.943Z,63.38
2023-03-31T16:15:25.863Z,62.79
2023-03-31T16:19:34.392Z,63.71
2023-03-31T16:23:41.370Z,64.68
2023-03-31T16:27:49.955Z,64.90
2023-03-31T16:31:51.176Z,63.87
2023-03-31T16:35:59.127Z,64.76
2023-03-31T16:40:00.902Z,64.64
2023-03-31T16:44:01.790Z,63.96
2023-03-31T16:48:15.090Z,63.28
2023-03-31T16:52:19.939Z,63.20
2023-03-31T16:56:20.544Z,64.00
2023-03-31T17:00:22.592Z,63.57
2023-03-31T17:04:25.693Z,62.02
2023-03-31T17:08:31.635Z,61.31
2023-03-31T17:12:32.349Z,61.77
2023-03-31T17:16:40.567Z,60.95
2023-03-31T17:20:48.743Z,60.08
2023-03-31T17:24:58.681Z,59.76
2023-03-31T17:29:00.894Z,60.07
2023-03-31T17:33:01.929Z,60.14
2023-03-31T17:37:03.069Z,59.34
2023-03-31T17:41:10.772Z,59.41
2023-03-31T17:45:14.421Z,60.21
2023-03-31T17:49:14.838Z,60.27
2023-03-31T17:53:15.325Z,61.48
2023-03-31T17:57:18.941Z,62.39
2023-03-31T18:01:19.743Z,64.00
2023-03-31T18:05:20.651Z,64.07
2023-03-31T18:09:21.260Z,64.23
2023-03-31T18:13:24.650Z,64.39
2023-03-31T18:17:25.267Z,65.95
2023-03-31T18:21:26.435Z,64.52
2023-03-31T18:25:27.707Z,64.21
2023-03-31T18:29:31.545Z,64.29
2023-03-31T18:33:32.294Z,65.02
2023-03-31T18:37:34.100Z,63.84
2023-03-31T18:41:34.845Z,64.42
2023-03-31T18:45:38.735Z,64.85
2023-03-31T18:49:39.470Z,64.08
2023-03-31T18:53:40.993Z,63.98
2023-03-31T18:57:42.418Z,63.50
2023-03-31T19:01:47.201Z,62.44
2023-03-31T19:05:50.082Z,62.64
2023-03-31T19:09:50.536Z,62.09
2023-03-31T19:13:52.227Z,62.32
2023-03-31T19:17:56.991Z,62.40
2023-03-31T19:21:57.763Z,61.64
2023-03-31T19:26:00.831Z,63.12
2023-03-31T19:30:02.070Z,62.67
2023-03-31T19:34:11.286Z,62.40
2023-03-31T19:38:12.250Z,62.40
2023-03-31T19:42:15.296Z,63.08
2023-03-31T19:46:15.890Z,63.05
2023-03-31T19:50:19.259Z,62.29
2023-03-31T19:54:21.622Z,61.98
2023-03-31T19:58:22.771Z,62.80
2023-03-31T20:02:24.410Z,62.81
2023-03-31T20:06:30.772Z,61.65
2023-03-31T20:10:34.149Z,62.31
2023-03-31T20:14:35.447Z,62.52
2023-03-31T20:18:37.661Z,62.50
2023-03-31T20:22:42.301Z,62.64
2023-03-31T20:26:42.907Z,62.41
2023-03-31T20:30:43.448Z,63.58
2023-03-31T20:34:44.476Z,64.11
2023-03-31T20:38:51.444Z,64.27
2023-03-31T20:42:52.394Z,64.04
2023-03-31T20:46:52.924Z,64.85
2023-03-31T20:50:54.425Z,65.68
2023-03-31T20:55:00.145Z,65.88
2023-03-31T20:59:02.727Z,65.54
2023-03-31T21:03:03.659Z,64.76
2023-03-31T21:07:04.475Z,66.29
2023-03-31T21:11:08.029Z,65.92
2023-03-31T21:15:10.115Z,66.39
2023-03-31T21:19:10.784Z,67.55
2023-03-31T21:23:11.371Z,67.89
2023-03-31T21:27:14.791Z,67.93
2023-03-31T21:31:18.208Z,68.64
2023-03-31T21:35:20.239Z,68.58
2023-03-31T21:39:21.611Z,69.10
2023-03-31T21:43:26.193Z,69.79
2023-03-31T21:47:26.968Z,69.87
2023-03-31T21:51:28.855Z,69.16
2023-03-31T21:55:31.857Z,71.32
2023-03-31T21:59:35.682Z,70.94
2023-03-31T22:03:38.751Z,70.99
2023-03-31T22:07:39.843Z,70.91
2023-03-31T22:11:40.999Z,69.28
2023-03-31T22:15:47.291Z,69.56
2023-03-31T22:19:48.277Z,70.27
2023-03-31T22:23:49.137Z,70.31
2023-03-31T22:27:49.806Z,69.72
2023-03-31T22:31:52.919Z,69.46
2023-03-31T22:35:53.446Z,69.60
2023-03-31T22:39:53.789Z,70.62
2023-03-31T22:43:55.131Z,69.53
2023-03-31T22:47:59.334Z,68.98
2023-03-31T22:52:00.268Z,68.80
2023-03-31T22:56:06.709Z,69.45
2023-03-31T23:00:09.667Z,69.51
2023-03-31T23:04:13.068Z,69.32
2023-03-31T23:08:13.444Z,68.37
2023-03-31T23:12:14.005Z,68.11
2023-03-31T23:16:20.099Z,68.24
2023-03-31T23:20:23.594Z,67.83
2023-03-31T23:24:25.278Z,68.67
2023-03-31T23:28:26.508Z,68.51
2023-03-31T23:32:26.983Z,68.17
2023-03-31T23:36:32.121Z,67.78
2023-03-31T23:40:32.561Z,68.94
2023-03-31T23:44:33.288Z,68.20
2023-03-31T23:48:34.331Z,68.34
2023-03-31T23:52:38.263Z,68.42
2023-03-31T23:56:39.324Z,68.63
